sensor_id;sensor_type;location;lat;lon;timestamp;temperature;humidity
72865;DHT22;61000;48.120;11.548;2023-04-21T00:01:33;6.90;99.90
72865;DHT22;61000;48.120;11.548;2023-04-21T00:04:01;6.90;99.90
72865;DHT22;61000;48.120;11.548;2023-04-21T00:06:28;6.90;99.90
72865;DHT22;61000;48.120;11.548;2023-04-21T00:08:55;6.90;99.90
72865;DHT22;61000;48.120;11.548;2023-04-21T00:11:22;6.90;99.90
72865;DHT22;61000;48.120;11.548;2023-04-21T00:13:49;6.90;99.90
72865;DHT22;61000;48.120;11.548;2023-04-21T00:16:17;6.90;99.90
72865;DHT22;61000;48.120;11.548;2023-04-21T00:18:46;6.90;99.90
72865;DHT22;61000;48.120;11.548;2023-04-21T00:21:13;6.90;99.90
72865;DHT22;61000;48.120;11.548;2023-04-21T00:23:41;6.90;99.90
72865;DHT22;61000;48.120;11.548;2023-04-21T00:26:07;6.90;99.90
72865;DHT22;61000;48.120;11.548;2023-04-21T00:28:36;6.90;99.90
72865;DHT22;61000;48.120;11.548;2023-04-21T00:31:03;6.90;99.90
72865;DHT22;61000;48.120;11.548;2023-04-21T00:33:32;6.90;99.90
72865;DHT22;61000;48.120;11.548;2023-04-21T00:36:00;6.90;99.90
72865;DHT22;61000;48.120;11.548;2023-04-21T00:38:27;6.90;99.90
72865;DHT22;61000;48.120;11.548;2023-04-21T00:40:54;6.90;99.90
72865;DHT22;61000;48.120;11.548;2023-04-21T00:43:21;6.90;99.90
72865;DHT22;61000;48.120;11.548;2023-04-21T00:45:52;6.90;99.90
72865;DHT22;61000;48.120;11.548;2023-04-21T00:48:19;6.90;99.90
72865;DHT22;61000;48.120;11.548;2023-04-21T00:50:46;6.90;99.90
72865;DHT22;61000;48.120;11.548;2023-04-21T00:53:15;6.90;99.90
72865;DHT22;61000;48.120;11.548;2023-04-21T00:55:43;6.90;99.90
72865;DHT22;61000;48.120;11.548;2023-04-21T00:58:11;6.90;99.90
72865;DHT22;61000;48.120;11.548;2023-04-21T01:00:38;6.80;99.90
72865;DHT22;61000;48.120;11.548;2023-04-21T01:03:05;6.90;99.90
72865;DHT22;61000;48.120;11.548;2023-04-21T01:05:33;6.90;99.90
72865;DHT22;61000;48.120;11.548;2023-04-21T01:08:00;6.90;99.90
72865;DHT22;61000;48.120;11.548;2023-04-21T01:10:29;6.90;99.90
72865;DHT22;61000;48.120;11.548;2023-04-21T01:12:56;6.90;99.90
72865;DHT22;61000;48.120;11.548;2023-04-21T01:15:24;6.80;99.90
72865;DHT22;61000;48.120;11.548;2023-04-21T01:17:51;6.80;99.90
72865;DHT22;61000;48.120;11.548;2023-04-21T01:20:18;6.90;99.90
72865;DHT22;61000;48.120;11.548;2023-04-21T01:22:47;6.90;99.90
72865;DHT22;61000;48.120;11.548;2023-04-21T01:25:16;6.90;99.90
72865;DHT22;61000;48.120;11.548;2023-04-21T01:27:46;6.90;99.90
72865;DHT22;61000;48.120;11.548;2023-04-21T01:30:13;6.90;99.90
72865;DHT22;61000;48.120;11.548;2023-04-21T01:32:40;6.90;99.90
72865;DHT22;61000;48.120;11.548;2023-04-21T01:35:08;6.90;99.90
72865;DHT22;61000;48.120;11.548;2023-04-21T01:37:37;6.90;99.90
72865;DHT22;61000;48.120;11.548;2023-04-21T01:40:07;7.00;99.90
72865;DHT22;61000;48.120;11.548;2023-04-21T01:42:36;7.00;99.90
72865;DHT22;61000;48.120;11.548;2023-04-21T01:45:04;6.90;99.90
72865;DHT22;61000;48.120;11.548;2023-04-21T01:47:31;6.90;99.90
72865;DHT22;61000;48.120;11.548;2023-04-21T01:49:58;7.00;99.90
72865;DHT22;61000;48.120;11.548;2023-04-21T01:52:25;6.90;99.90
72865;DHT22;61000;48.120;11.548;2023-04-21T01:54:53;6.90;99.90
72865;DHT22;61000;48.120;11.548;2023-04-21T01:57:22;6.90;99.90
72865;DHT22;61000;48.120;11.548;2023-04-21T01:59:50;6.90;99.90
72865;DHT22;61000;48.120;11.548;2023-04-21T02:02:17;6.90;99.90
72865;DHT22;61000;48.120;11.548;2023-04-21T02:04:44;6.90;99.90
72865;DHT22;61000;48.120;11.548;2023-04-21T02:07:11;6.90;99.90
72865;DHT22;61000;48.120;11.548;2023-04-21T02:09:39;7.00;99.90
72865;DHT22;61000;48.120;11.548;2023-04-21T02:12:07;6.90;99.90
72865;DHT22;61000;48.120;11.548;2023-04-21T02:14:36;6.90;99.90
72865;DHT22;61000;48.120;11.548;2023-04-21T02:17:06;6.90;99.90
72865;DHT22;61000;48.120;11.548;2023-04-21T02:19:33;6.90;99.90
72865;DHT22;61000;48.120;11.548;2023-04-21T02:21:59;6.90;99.90
72865;DHT22;61000;48.120;11.548;2023-04-21T02:24:26;7.00;99.90
72865;DHT22;61000;48.120;11.548;2023-04-21T02:26:53;7.00;99.90
72865;DHT22;61000;48.120;11.548;2023-04-21T02:29:22;7.00;99.90
72865;DHT22;61000;48.120;11.548;2023-04-21T02:31:50;7.00;99.90
72865;DHT22;61000;48.120;11.548;2023-04-21T02:34:17;7.00;99.90
72865;DHT22;61000;48.120;11.548;2023-04-21T02:36:45;7.00;99.90
72865;DHT22;61000;48.120;11.548;2023-04-21T02:39:12;7.00;99.90
72865;DHT22;61000;48.120;11.548;2023-04-21T02:41:39;7.00;99.90
72865;DHT22;61000;48.120;11.548;2023-04-21T02:44:06;7.00;99.90
72865;DHT22;61000;48.120;11.548;2023-04-21T02:46:33;7.00;99.90
72865;DHT22;61000;48.120;11.548;2023-04-21T02:49:01;7.00;99.90
72865;DHT22;61000;48.120;11.548;2023-04-21T02:51:28;7.00;99.90
72865;DHT22;61000;48.120;11.548;2023-04-21T02:53:56;6.90;99.90
72865;DHT22;61000;48.120;11.548;2023-04-21T02:56:23;6.90;99.90
72865;DHT22;61000;48.120;11.548;2023-04-21T02:58:50;7.00;99.90
72865;DHT22;61000;48.120;11.548;2023-04-21T03:01:17;6.90;99.90
72865;DHT22;61000;48.120;11.548;2023-04-21T03:03:44;6.90;99.90
72865;DHT22;61000;48.120;11.548;2023-04-21T03:06:12;6.90;99.90
72865;DHT22;61000;48.120;11.548;2023-04-21T03:08:39;6.90;99.90
72865;DHT22;61000;48.120;11.548;2023-04-21T03:11:06;6.90;99.90
72865;DHT22;61000;48.120;11.548;2023-04-21T03:13:33;6.90;99.90
72865;DHT22;61000;48.120;11.548;2023-04-21T03:16:00;6.90;99.90
72865;DHT22;61000;48.120;11.548;2023-04-21T03:18:27;6.90;99.90
72865;DHT22;61000;48.120;11.548;2023-04-21T03:20:58;6.90;99.90
72865;DHT22;61000;48.120;11.548;2023-04-21T03:23:27;6.90;99.90
72865;DHT22;61000;48.120;11.548;2023-04-21T03:25:54;6.80;99.90
72865;DHT22;61000;48.120;11.548;2023-04-21T03:28:21;6.80;99.90
72865;DHT22;61000;48.120;11.548;2023-04-21T03:30:48;6.80;99.90
72865;DHT22;61000;48.120;11.548;2023-04-21T03:33:15;6.80;99.90
72865;DHT22;61000;48.120;11.548;2023-04-21T03:35:42;6.80;99.90
72865;DHT22;61000;48.120;11.548;2023-04-21T03:38:09;6.70;99.90
72865;DHT22;61000;48.120;11.548;2023-04-21T03:40:37;6.70;99.90
72865;DHT22;61000;48.120;11.548;2023-04-21T03:43:05;6.70;99.90
72865;DHT22;61000;48.120;11.548;2023-04-21T03:45:34;6.70;99.90
72865;DHT22;61000;48.120;11.548;2023-04-21T03:48:01;6.70;99.90
72865;DHT22;61000;48.120;11.548;2023-04-21T03:50:28;6.70;99.90
72865;DHT22;61000;48.120;11.548;2023-04-21T03:52:55;6.60;99.90
72865;DHT22;61000;48.120;11.548;2023-04-21T03:55:22;6.60;99.90
72865;DHT22;61000;48.120;11.548;2023-04-21T03:57:50;6.60;99.90
72865;DHT22;61000;48.120;11.548;2023-04-21T04:00:17;6.60;99.90
72865;DHT22;61000;48.120;11.548;2023-04-21T04:02:44;6.70;99.90
72865;DHT22;61000;48.120;11.548;2023-04-21T04:05:11;6.60;99.90
72865;DHT22;61000;48.120;11.548;2023-04-21T04:07:38;6.60;99.90
72865;DHT22;61000;48.120;11.548;2023-04-21T04:10:05;6.50;99.90
72865;DHT22;61000;48.120;11.548;2023-04-21T04:12:32;6.60;99.90
72865;DHT22;61000;48.120;11.548;2023-04-21T04:15:00;6.50;99.90
72865;DHT22;61000;48.120;11.548;2023-04-21T04:17:27;6.50;99.90
72865;DHT22;61000;48.120;11.548;2023-04-21T04:19:54;6.50;99.90
72865;DHT22;61000;48.120;11.548;2023-04-21T04:22:21;6.50;99.90
72865;DHT22;61000;48.120;11.548;2023-04-21T04:24:47;6.50;99.90
72865;DHT22;61000;48.120;11.548;2023-04-21T04:27:15;6.60;99.90
72865;DHT22;61000;48.120;11.548;2023-04-21T04:29:44;6.50;99.90
72865;DHT22;61000;48.120;11.548;2023-04-21T04:32:15;6.50;99.90
72865;DHT22;61000;48.120;11.548;2023-04-21T04:34:42;6.50;99.90
72865;DHT22;61000;48.120;11.548;2023-04-21T04:37:09;6.40;99.90
72865;DHT22;61000;48.120;11.548;2023-04-21T04:39:37;6.50;99.90
72865;DHT22;61000;48.120;11.548;2023-04-21T04:42:05;6.50;99.90
72865;DHT22;61000;48.120;11.548;2023-04-21T04:44:33;6.40;99.90
72865;DHT22;61000;48.120;11.548;2023-04-21T04:47:00;6.40;99.90
72865;DHT22;61000;48.120;11.548;2023-04-21T04:49:29;6.50;99.90
72865;DHT22;61000;48.120;11.548;2023-04-21T04:51:57;6.40;99.90
72865;DHT22;61000;48.120;11.548;2023-04-21T04:54:24;6.40;99.90
72865;DHT22;61000;48.120;11.548;2023-04-21T04:56:53;6.40;99.90
72865;DHT22;61000;48.120;11.548;2023-04-21T04:59:20;6.40;99.90
72865;DHT22;61000;48.120;11.548;2023-04-21T05:01:47;6.50;99.90
72865;DHT22;61000;48.120;11.548;2023-04-21T05:04:14;6.50;99.90
72865;DHT22;61000;48.120;11.548;2023-04-21T05:06:43;6.50;99.90
72865;DHT22;61000;48.120;11.548;2023-04-21T05:09:10;6.60;99.90
72865;DHT22;61000;48.120;11.548;2023-04-21T05:11:37;6.70;99.90
72865;DHT22;61000;48.120;11.548;2023-04-21T05:14:10;6.60;99.90
72865;DHT22;61000;48.120;11.548;2023-04-21T05:16:36;6.70;99.90
72865;DHT22;61000;48.120;11.548;2023-04-21T05:19:04;6.70;99.90
72865;DHT22;61000;48.120;11.548;2023-04-21T05:21:31;6.50;99.90
72865;DHT22;61000;48.120;11.548;2023-04-21T05:23:59;6.60;99.90
72865;DHT22;61000;48.120;11.548;2023-04-21T05:26:27;6.60;99.90
72865;DHT22;61000;48.120;11.548;2023-04-21T05:28:55;6.60;99.90
72865;DHT22;61000;48.120;11.548;2023-04-21T05:31:22;6.70;99.90
72865;DHT22;61000;48.120;11.548;2023-04-21T05:33:49;6.70;99.90
72865;DHT22;61000;48.120;11.548;2023-04-21T05:36:16;6.70;99.90
72865;DHT22;61000;48.120;11.548;2023-04-21T05:38:44;6.70;99.90
72865;DHT22;61000;48.120;11.548;2023-04-21T05:41:13;6.70;99.90
72865;DHT22;61000;48.120;11.548;2023-04-21T05:43:40;6.80;99.90
72865;DHT22;61000;48.120;11.548;2023-04-21T05:46:08;6.80;99.90
72865;DHT22;61000;48.120;11.548;2023-04-21T05:48:35;6.80;99.90
72865;DHT22;61000;48.120;11.548;2023-04-21T05:51:07;6.90;99.90
72865;DHT22;61000;48.120;11.548;2023-04-21T05:53:35;6.90;99.90
72865;DHT22;61000;48.120;11.548;2023-04-21T05:56:02;7.00;99.90
72865;DHT22;61000;48.120;11.548;2023-04-21T05:58:30;7.00;99.90
72865;DHT22;61000;48.120;11.548;2023-04-21T06:00:57;7.10;99.90
72865;DHT22;61000;48.120;11.548;2023-04-21T06:03:24;7.10;99.90
72865;DHT22;61000;48.120;11.548;2023-04-21T06:05:53;7.10;99.90
72865;DHT22;61000;48.120;11.548;2023-04-21T06:08:20;7.20;99.90
72865;DHT22;61000;48.120;11.548;2023-04-21T06:10:47;7.30;99.90
72865;DHT22;61000;48.120;11.548;2023-04-21T06:13:14;7.30;99.90
72865;DHT22;61000;48.120;11.548;2023-04-21T06:15:42;7.50;99.90
72865;DHT22;61000;48.120;11.548;2023-04-21T06:18:09;7.50;99.90
72865;DHT22;61000;48.120;11.548;2023-04-21T06:20:36;7.50;99.90
72865;DHT22;61000;48.120;11.548;2023-04-21T06:23:03;7.60;99.90
72865;DHT22;61000;48.120;11.548;2023-04-21T06:25:29;7.70;99.90
72865;DHT22;61000;48.120;11.548;2023-04-21T06:27:56;7.90;99.90
72865;DHT22;61000;48.120;11.548;2023-04-21T06:30:23;8.00;99.90
72865;DHT22;61000;48.120;11.548;2023-04-21T06:35:19;8.40;99.90
72865;DHT22;61000;48.120;11.548;2023-04-21T06:37:46;8.40;99.90
72865;DHT22;61000;48.120;11.548;2023-04-21T06:59:55;9.30;99.90
72865;DHT22;61000;48.120;11.548;2023-04-21T07:02:22;9.40;99.90
72865;DHT22;61000;48.120;11.548;2023-04-21T07:04:49;9.40;99.90
72865;DHT22;61000;48.120;11.548;2023-04-21T07:07:17;9.50;99.90
72865;DHT22;61000;48.120;11.548;2023-04-21T07:09:44;9.50;99.90
72865;DHT22;61000;48.120;11.548;2023-04-21T07:12:12;9.50;99.90
72865;DHT22;61000;48.120;11.548;2023-04-21T07:14:39;9.50;99.90
72865;DHT22;61000;48.120;11.548;2023-04-21T07:17:06;9.50;99.90
72865;DHT22;61000;48.120;11.548;2023-04-21T07:19:33;9.60;99.90
72865;DHT22;61000;48.120;11.548;2023-04-21T07:22:00;9.60;99.90
72865;DHT22;61000;48.120;11.548;2023-04-21T07:24:28;9.60;99.90
72865;DHT22;61000;48.120;11.548;2023-04-21T07:26:55;9.70;99.90
72865;DHT22;61000;48.120;11.548;2023-04-21T07:29:22;9.70;99.90
72865;DHT22;61000;48.120;11.548;2023-04-21T07:31:49;9.80;99.90
72865;DHT22;61000;48.120;11.548;2023-04-21T07:34:16;9.90;99.90
72865;DHT22;61000;48.120;11.548;2023-04-21T07:36:43;9.90;99.90
72865;DHT22;61000;48.120;11.548;2023-04-21T07:39:10;10.00;99.90
72865;DHT22;61000;48.120;11.548;2023-04-21T07:41:38;10.10;99.90
72865;DHT22;61000;48.120;11.548;2023-04-21T07:44:05;10.30;99.90
72865;DHT22;61000;48.120;11.548;2023-04-21T07:46:32;10.30;99.90
72865;DHT22;61000;48.120;11.548;2023-04-21T07:48:59;10.40;99.90
72865;DHT22;61000;48.120;11.548;2023-04-21T07:51:26;10.50;99.90
72865;DHT22;61000;48.120;11.548;2023-04-21T07:53:53;10.60;99.90
72865;DHT22;61000;48.120;11.548;2023-04-21T07:56:20;10.70;99.90
72865;DHT22;61000;48.120;11.548;2023-04-21T07:58:49;10.70;99.90
72865;DHT22;61000;48.120;11.548;2023-04-21T08:01:15;10.70;99.90
72865;DHT22;61000;48.120;11.548;2023-04-21T08:03:42;10.90;99.90
72865;DHT22;61000;48.120;11.548;2023-04-21T08:06:09;11.20;99.90
72865;DHT22;61000;48.120;11.548;2023-04-21T08:08:36;11.30;99.90
72865;DHT22;61000;48.120;11.548;2023-04-21T08:11:03;11.30;99.90
72865;DHT22;61000;48.120;11.548;2023-04-21T08:13:31;11.60;99.90
72865;DHT22;61000;48.120;11.548;2023-04-21T08:15:59;11.40;99.90
72865;DHT22;61000;48.120;11.548;2023-04-21T08:18:26;11.30;99.90
72865;DHT22;61000;48.120;11.548;2023-04-21T08:20:53;11.40;99.90
72865;DHT22;61000;48.120;11.548;2023-04-21T08:23:22;11.60;99.90
72865;DHT22;61000;48.120;11.548;2023-04-21T08:25:49;11.80;99.90
72865;DHT22;61000;48.120;11.548;2023-04-21T08:28:16;11.80;99.90
72865;DHT22;61000;48.120;11.548;2023-04-21T08:30:43;11.90;99.90
72865;DHT22;61000;48.120;11.548;2023-04-21T08:33:11;12.30;99.90
72865;DHT22;61000;48.120;11.548;2023-04-21T08:35:39;12.40;99.90
72865;DHT22;61000;48.120;11.548;2023-04-21T08:38:06;12.60;99.90
72865;DHT22;61000;48.120;11.548;2023-04-21T08:40:35;12.60;99.90
72865;DHT22;61000;48.120;11.548;2023-04-21T08:43:03;12.60;99.90
72865;DHT22;61000;48.120;11.548;2023-04-21T08:45:31;12.80;99.90
72865;DHT22;61000;48.120;11.548;2023-04-21T08:47:58;12.90;99.90
72865;DHT22;61000;48.120;11.548;2023-04-21T08:50:29;12.90;99.90
72865;DHT22;61000;48.120;11.548;2023-04-21T08:52:56;12.90;99.90
72865;DHT22;61000;48.120;11.548;2023-04-21T08:55:25;13.10;99.90
72865;DHT22;61000;48.120;11.548;2023-04-21T08:57:53;13.30;99.90
72865;DHT22;61000;48.120;11.548;2023-04-21T09:00:20;13.50;99.90
72865;DHT22;61000;48.120;11.548;2023-04-21T09:02:55;13.60;99.90
72865;DHT22;61000;48.120;11.548;2023-04-21T09:05:22;13.40;99.90
72865;DHT22;61000;48.120;11.548;2023-04-21T09:07:53;13.70;99.90
72865;DHT22;61000;48.120;11.548;2023-04-21T09:10:33;13.50;99.90
72865;DHT22;61000;48.120;11.548;2023-04-21T09:13:06;13.40;99.90
72865;DHT22;61000;48.120;11.548;2023-04-21T09:15:38;13.60;99.90
72865;DHT22;61000;48.120;11.548;2023-04-21T09:18:10;13.60;99.90
72865;DHT22;61000;48.120;11.548;2023-04-21T09:20:38;13.70;99.90
72865;DHT22;61000;48.120;11.548;2023-04-21T09:23:07;13.70;99.90
72865;DHT22;61000;48.120;11.548;2023-04-21T09:25:36;14.10;99.90
72865;DHT22;61000;48.120;11.548;2023-04-21T09:28:06;15.00;99.70
72865;DHT22;61000;48.120;11.548;2023-04-21T09:30:34;15.40;97.50
72865;DHT22;61000;48.120;11.548;2023-04-21T09:33:01;15.90;95.90
72865;DHT22;61000;48.120;11.548;2023-04-21T09:35:31;16.50;94.80
72865;DHT22;61000;48.120;11.548;2023-04-21T09:37:59;16.90;95.00
72865;DHT22;61000;48.120;11.548;2023-04-21T09:40:29;17.20;94.00
72865;DHT22;61000;48.120;11.548;2023-04-21T09:42:56;18.10;93.10
72865;DHT22;61000;48.120;11.548;2023-04-21T09:45:28;18.10;92.10
72865;DHT22;61000;48.120;11.548;2023-04-21T09:47:59;18.00;92.00
72865;DHT22;61000;48.120;11.548;2023-04-21T09:50:28;18.30;91.80
72865;DHT22;61000;48.120;11.548;2023-04-21T09:52:56;17.80;91.50
72865;DHT22;61000;48.120;11.548;2023-04-21T09:55:28;18.20;91.20
72865;DHT22;61000;48.120;11.548;2023-04-21T09:57:57;17.80;92.50
72865;DHT22;61000;48.120;11.548;2023-04-21T10:00:26;17.80;93.40
72865;DHT22;61000;48.120;11.548;2023-04-21T10:02:56;18.00;92.60
72865;DHT22;61000;48.120;11.548;2023-04-21T10:05:23;17.80;92.70
72865;DHT22;61000;48.120;11.548;2023-04-21T10:07:50;17.90;93.00
72865;DHT22;61000;48.120;11.548;2023-04-21T10:10:20;17.80;93.40
72865;DHT22;61000;48.120;11.548;2023-04-21T10:12:50;18.00;92.70
72865;DHT22;61000;48.120;11.548;2023-04-21T10:15:31;18.60;91.50
72865;DHT22;61000;48.120;11.548;2023-04-21T10:18:11;18.70;89.70
72865;DHT22;61000;48.120;11.548;2023-04-21T10:20:53;18.70;90.00
72865;DHT22;61000;48.120;11.548;2023-04-21T10:23:27;18.90;88.30
72865;DHT22;61000;48.120;11.548;2023-04-21T10:26:01;18.60;88.60
72865;DHT22;61000;48.120;11.548;2023-04-21T10:34:22;18.40;86.10
72865;DHT22;61000;48.120;11.548;2023-04-21T10:37:16;17.70;86.30
72865;DHT22;61000;48.120;11.548;2023-04-21T10:39:54;17.50;89.50
72865;DHT22;61000;48.120;11.548;2023-04-21T10:42:28;17.50;90.20
72865;DHT22;61000;48.120;11.548;2023-04-21T10:45:11;17.70;90.50
72865;DHT22;61000;48.120;11.548;2023-04-21T10:47:40;17.60;90.80
72865;DHT22;61000;48.120;11.548;2023-04-21T10:50:14;17.40;91.10
72865;DHT22;61000;48.120;11.548;2023-04-21T10:52:46;17.00;91.70
72865;DHT22;61000;48.120;11.548;2023-04-21T10:55:13;17.10;92.20
72865;DHT22;61000;48.120;11.548;2023-04-21T10:57:43;17.00;92.90
72865;DHT22;61000;48.120;11.548;2023-04-21T11:00:14;16.90;93.10
72865;DHT22;61000;48.120;11.548;2023-04-21T11:02:43;16.80;93.00
72865;DHT22;61000;48.120;11.548;2023-04-21T11:05:09;16.70;93.70
72865;DHT22;61000;48.120;11.548;2023-04-21T11:07:36;16.80;93.60
72865;DHT22;61000;48.120;11.548;2023-04-21T11:10:05;16.90;93.70
72865;DHT22;61000;48.120;11.548;2023-04-21T11:12:33;16.80;94.10
72865;DHT22;61000;48.120;11.548;2023-04-21T11:15:03;16.80;94.20
72865;DHT22;61000;48.120;11.548;2023-04-21T11:17:34;16.70;94.40
72865;DHT22;61000;48.120;11.548;2023-04-21T11:20:02;16.50;94.50
72865;DHT22;61000;48.120;11.548;2023-04-21T11:22:31;16.70;95.20
72865;DHT22;61000;48.120;11.548;2023-04-21T11:24:58;16.80;94.60
72865;DHT22;61000;48.120;11.548;2023-04-21T11:27:27;16.80;94.50
72865;DHT22;61000;48.120;11.548;2023-04-21T11:29:54;16.90;94.60
72865;DHT22;61000;48.120;11.548;2023-04-21T11:32:22;16.90;99.70
72865;DHT22;61000;48.120;11.548;2023-04-21T11:34:50;17.10;99.40
72865;DHT22;61000;48.120;11.548;2023-04-21T11:37:23;17.20;99.10
72865;DHT22;61000;48.120;11.548;2023-04-21T11:39:56;17.40;98.60
72865;DHT22;61000;48.120;11.548;2023-04-21T11:42:23;17.70;98.10
72865;DHT22;61000;48.120;11.548;2023-04-21T11:44:53;17.70;96.70
72865;DHT22;61000;48.120;11.548;2023-04-21T11:47:22;17.80;97.30
72865;DHT22;61000;48.120;11.548;2023-04-21T11:49:52;17.60;97.60
72865;DHT22;61000;48.120;11.548;2023-04-21T11:52:22;17.80;97.60
72865;DHT22;61000;48.120;11.548;2023-04-21T11:54:54;18.00;97.60
72865;DHT22;61000;48.120;11.548;2023-04-21T11:57:22;18.20;99.20
72865;DHT22;61000;48.120;11.548;2023-04-21T11:59:50;18.00;98.90
72865;DHT22;61000;48.120;11.548;2023-04-21T12:02:25;18.20;99.10
72865;DHT22;61000;48.120;11.548;2023-04-21T12:04:58;18.00;98.30
72865;DHT22;61000;48.120;11.548;2023-04-21T12:07:25;18.00;97.90
72865;DHT22;61000;48.120;11.548;2023-04-21T12:09:52;18.10;97.80
72865;DHT22;61000;48.120;11.548;2023-04-21T12:12:21;17.90;97.50
72865;DHT22;61000;48.120;11.548;2023-04-21T12:14:49;18.10;97.10
72865;DHT22;61000;48.120;11.548;2023-04-21T12:17:16;18.00;97.20
72865;DHT22;61000;48.120;11.548;2023-04-21T12:19:43;18.00;97.80
72865;DHT22;61000;48.120;11.548;2023-04-21T12:22:13;18.10;97.80
72865;DHT22;61000;48.120;11.548;2023-04-21T12:24:40;18.20;97.60
72865;DHT22;61000;48.120;11.548;2023-04-21T12:27:08;18.50;97.10
72865;DHT22;61000;48.120;11.548;2023-04-21T12:29:35;18.50;93.90
72865;DHT22;61000;48.120;11.548;2023-04-21T12:32:03;18.70;94.40
72865;DHT22;61000;48.120;11.548;2023-04-21T12:34:30;18.60;94.80
72865;DHT22;61000;48.120;11.548;2023-04-21T12:36:57;18.40;93.00
72865;DHT22;61000;48.120;11.548;2023-04-21T12:39:25;18.50;92.80
72865;DHT22;61000;48.120;11.548;2023-04-21T12:41:52;18.80;92.90
72865;DHT22;61000;48.120;11.548;2023-04-21T12:44:19;18.80;93.60
72865;DHT22;61000;48.120;11.548;2023-04-21T12:46:46;19.00;89.10
72865;DHT22;61000;48.120;11.548;2023-04-21T12:49:14;18.80;88.30
72865;DHT22;61000;48.120;11.548;2023-04-21T12:51:42;18.80;87.90
72865;DHT22;61000;48.120;11.548;2023-04-21T12:54:09;18.70;87.50
72865;DHT22;61000;48.120;11.548;2023-04-21T12:56:37;18.60;86.40
72865;DHT22;61000;48.120;11.548;2023-04-21T12:59:06;18.40;86.50
72865;DHT22;61000;48.120;11.548;2023-04-21T13:01:35;18.50;85.80
72865;DHT22;61000;48.120;11.548;2023-04-21T13:04:02;18.60;84.30
72865;DHT22;61000;48.120;11.548;2023-04-21T13:06:29;18.70;83.80
72865;DHT22;61000;48.120;11.548;2023-04-21T13:08:57;19.00;84.10
72865;DHT22;61000;48.120;11.548;2023-04-21T13:11:24;19.40;81.50
72865;DHT22;61000;48.120;11.548;2023-04-21T13:13:52;19.60;80.80
72865;DHT22;61000;48.120;11.548;2023-04-21T13:16:19;19.60;79.60
72865;DHT22;61000;48.120;11.548;2023-04-21T13:18:46;19.20;78.80
72865;DHT22;61000;48.120;11.548;2023-04-21T13:21:13;19.50;79.50
72865;DHT22;61000;48.120;11.548;2023-04-21T13:23:40;19.60;78.60
72865;DHT22;61000;48.120;11.548;2023-04-21T13:26:07;19.50;77.00
72865;DHT22;61000;48.120;11.548;2023-04-21T13:28:37;19.50;77.00
72865;DHT22;61000;48.120;11.548;2023-04-21T13:31:06;19.60;75.60
72865;DHT22;61000;48.120;11.548;2023-04-21T13:33:33;19.60;74.40
72865;DHT22;61000;48.120;11.548;2023-04-21T13:36:00;19.70;75.80
72865;DHT22;61000;48.120;11.548;2023-04-21T13:38:28;19.80;76.60
72865;DHT22;61000;48.120;11.548;2023-04-21T13:40:55;19.80;76.80
72865;DHT22;61000;48.120;11.548;2023-04-21T13:43:22;20.10;76.90
72865;DHT22;61000;48.120;11.548;2023-04-21T13:45:49;20.30;75.70
72865;DHT22;61000;48.120;11.548;2023-04-21T13:48:19;20.10;76.20
72865;DHT22;61000;48.120;11.548;2023-04-21T13:50:46;20.10;77.80
72865;DHT22;61000;48.120;11.548;2023-04-21T13:53:13;20.30;75.50
72865;DHT22;61000;48.120;11.548;2023-04-21T13:55:41;20.00;75.00
72865;DHT22;61000;48.120;11.548;2023-04-21T13:58:08;19.80;75.70
72865;DHT22;61000;48.120;11.548;2023-04-21T14:00:35;19.80;75.20
72865;DHT22;61000;48.120;11.548;2023-04-21T14:03:03;19.80;74.10
72865;DHT22;61000;48.120;11.548;2023-04-21T14:05:31;19.70;74.90
72865;DHT22;61000;48.120;11.548;2023-04-21T14:07:58;19.90;75.90
72865;DHT22;61000;48.120;11.548;2023-04-21T14:10:25;20.10;74.90
72865;DHT22;61000;48.120;11.548;2023-04-21T14:12:52;20.20;74.00
72865;DHT22;61000;48.120;11.548;2023-04-21T14:15:19;20.40;73.70
72865;DHT22;61000;48.120;11.548;2023-04-21T14:17:46;20.70;73.40
72865;DHT22;61000;48.120;11.548;2023-04-21T14:20:13;20.90;72.40
72865;DHT22;61000;48.120;11.548;2023-04-21T14:22:41;20.60;71.00
72865;DHT22;61000;48.120;11.548;2023-04-21T14:25:08;20.40;71.60
72865;DHT22;61000;48.120;11.548;2023-04-21T14:27:35;20.30;72.20
72865;DHT22;61000;48.120;11.548;2023-04-21T14:30:03;20.30;74.50
72865;DHT22;61000;48.120;11.548;2023-04-21T14:32:30;20.40;74.90
72865;DHT22;61000;48.120;11.548;2023-04-21T14:34:57;20.50;73.60
72865;DHT22;61000;48.120;11.548;2023-04-21T14:37:27;20.40;72.70
72865;DHT22;61000;48.120;11.548;2023-04-21T14:39:55;20.60;73.40
72865;DHT22;61000;48.120;11.548;2023-04-21T14:42:22;20.60;73.40
72865;DHT22;61000;48.120;11.548;2023-04-21T14:44:49;20.50;72.00
72865;DHT22;61000;48.120;11.548;2023-04-21T14:47:16;20.40;72.40
72865;DHT22;61000;48.120;11.548;2023-04-21T14:49:43;20.40;71.70
72865;DHT22;61000;48.120;11.548;2023-04-21T14:52:10;20.20;72.10
72865;DHT22;61000;48.120;11.548;2023-04-21T14:54:37;20.10;71.30
72865;DHT22;61000;48.120;11.548;2023-04-21T14:57:05;20.10;71.90
72865;DHT22;61000;48.120;11.548;2023-04-21T14:59:32;20.30;72.00
72865;DHT22;61000;48.120;11.548;2023-04-21T15:01:59;20.30;71.20
72865;DHT22;61000;48.120;11.548;2023-04-21T15:04:26;20.40;71.10
72865;DHT22;61000;48.120;11.548;2023-04-21T15:06:53;20.50;70.40
72865;DHT22;61000;48.120;11.548;2023-04-21T15:09:20;20.50;68.80
72865;DHT22;61000;48.120;11.548;2023-04-21T15:11:47;20.40;70.10
72865;DHT22;61000;48.120;11.548;2023-04-21T15:14:15;20.30;69.20
72865;DHT22;61000;48.120;11.548;2023-04-21T15:16:42;20.20;69.60
72865;DHT22;61000;48.120;11.548;2023-04-21T15:19:09;20.20;70.60
72865;DHT22;61000;48.120;11.548;2023-04-21T15:21:36;20.30;70.50
72865;DHT22;61000;48.120;11.548;2023-04-21T15:24:03;20.10;69.20
72865;DHT22;61000;48.120;11.548;2023-04-21T15:26:30;20.10;69.80
72865;DHT22;61000;48.120;11.548;2023-04-21T15:28:57;20.00;69.70
72865;DHT22;61000;48.120;11.548;2023-04-21T15:31:25;19.90;70.00
72865;DHT22;61000;48.120;11.548;2023-04-21T15:33:52;19.90;70.20
72865;DHT22;61000;48.120;11.548;2023-04-21T15:36:19;19.90;70.00
72865;DHT22;61000;48.120;11.548;2023-04-21T15:38:46;19.80;69.80
72865;DHT22;61000;48.120;11.548;2023-04-21T15:41:13;19.80;69.20
72865;DHT22;61000;48.120;11.548;2023-04-21T15:43:40;19.70;69.60
72865;DHT22;61000;48.120;11.548;2023-04-21T15:46:08;19.70;69.90
72865;DHT22;61000;48.120;11.548;2023-04-21T15:48:39;19.50;70.00
72865;DHT22;61000;48.120;11.548;2023-04-21T15:51:06;19.60;72.10
72865;DHT22;61000;48.120;11.548;2023-04-21T15:53:33;19.50;70.10
72865;DHT22;61000;48.120;11.548;2023-04-21T15:56:02;19.40;69.90